sensor_id;sensor_type;location;lat;lon;timestamp;temperature;humidity
40732;DHT22;26420;52.256;9.096;2022-08-19T00:00:45;20.30;99.90
40732;DHT22;26420;52.256;9.096;2022-08-19T00:05:46;20.30;99.90
40732;DHT22;26420;52.256;9.096;2022-08-19T00:10:48;20.10;99.90
40732;DHT22;26420;52.256;9.096;2022-08-19T00:15:50;20.10;99.90
40732;DHT22;26420;52.256;9.096;2022-08-19T00:20:52;20.00;99.90
40732;DHT22;26420;52.256;9.096;2022-08-19T00:25:54;20.10;99.90
40732;DHT22;26420;52.256;9.096;2022-08-19T00:30:56;20.10;99.90
40732;DHT22;26420;52.256;9.096;2022-08-19T00:35:58;20.10;99.90
40732;DHT22;26420;52.256;9.096;2022-08-19T00:41:00;20.10;99.90
40732;DHT22;26420;52.256;9.096;2022-08-19T00:46:01;20.10;99.90
40732;DHT22;26420;52.256;9.096;2022-08-19T00:51:06;20.00;99.90
40732;DHT22;26420;52.256;9.096;2022-08-19T00:56:07;19.90;99.90
40732;DHT22;26420;52.256;9.096;2022-08-19T01:01:09;19.90;99.90
40732;DHT22;26420;52.256;9.096;2022-08-19T01:06:12;19.90;99.90
40732;DHT22;26420;52.256;9.096;2022-08-19T01:11:20;19.90;99.90
40732;DHT22;26420;52.256;9.096;2022-08-19T01:16:24;19.70;99.90
40732;DHT22;26420;52.256;9.096;2022-08-19T01:21:32;19.80;99.90
40732;DHT22;26420;52.256;9.096;2022-08-19T01:26:40;19.80;99.90
40732;DHT22;26420;52.256;9.096;2022-08-19T01:31:44;19.60;99.90
40732;DHT22;26420;52.256;9.096;2022-08-19T01:36:47;19.50;99.90
40732;DHT22;26420;52.256;9.096;2022-08-19T01:41:49;19.60;99.90
40732;DHT22;26420;52.256;9.096;2022-08-19T01:46:51;19.50;99.90
40732;DHT22;26420;52.256;9.096;2022-08-19T01:51:53;19.40;99.90
40732;DHT22;26420;52.256;9.096;2022-08-19T01:57:02;19.40;99.90
40732;DHT22;26420;52.256;9.096;2022-08-19T02:02:05;19.30;99.90
40732;DHT22;26420;52.256;9.096;2022-08-19T02:07:10;19.20;99.90
40732;DHT22;26420;52.256;9.096;2022-08-19T02:12:11;19.10;99.90
40732;DHT22;26420;52.256;9.096;2022-08-19T02:17:13;19.00;99.90
40732;DHT22;26420;52.256;9.096;2022-08-19T02:22:15;18.90;99.90
40732;DHT22;26420;52.256;9.096;2022-08-19T02:27:16;18.80;99.90
40732;DHT22;26420;52.256;9.096;2022-08-19T02:32:19;18.90;99.90
40732;DHT22;26420;52.256;9.096;2022-08-19T02:37:21;18.90;99.90
40732;DHT22;26420;52.256;9.096;2022-08-19T02:42:41;18.70;99.90
40732;DHT22;26420;52.256;9.096;2022-08-19T02:47:44;18.60;99.90
40732;DHT22;26420;52.256;9.096;2022-08-19T02:52:45;18.60;99.90
40732;DHT22;26420;52.256;9.096;2022-08-19T02:57:48;18.50;99.90
40732;DHT22;26420;52.256;9.096;2022-08-19T03:02:50;18.40;99.90
40732;DHT22;26420;52.256;9.096;2022-08-19T03:07:51;18.30;99.90
40732;DHT22;26420;52.256;9.096;2022-08-19T03:12:53;18.10;99.90
40732;DHT22;26420;52.256;9.096;2022-08-19T03:17:55;18.10;99.90
40732;DHT22;26420;52.256;9.096;2022-08-19T03:22:57;18.20;99.90
40732;DHT22;26420;52.256;9.096;2022-08-19T03:27:59;18.00;99.90
40732;DHT22;26420;52.256;9.096;2022-08-19T03:33:02;17.80;99.90
40732;DHT22;26420;52.256;9.096;2022-08-19T03:38:06;17.80;99.90
40732;DHT22;26420;52.256;9.096;2022-08-19T03:43:08;17.80;99.90
40732;DHT22;26420;52.256;9.096;2022-08-19T03:48:09;17.80;99.90
40732;DHT22;26420;52.256;9.096;2022-08-19T03:53:11;18.00;99.90
40732;DHT22;26420;52.256;9.096;2022-08-19T03:58:13;18.00;99.90
40732;DHT22;26420;52.256;9.096;2022-08-19T04:03:15;17.90;99.90
40732;DHT22;26420;52.256;9.096;2022-08-19T04:08:17;17.80;99.90
40732;DHT22;26420;52.256;9.096;2022-08-19T04:13:21;17.70;99.90
40732;DHT22;26420;52.256;9.096;2022-08-19T04:18:23;17.70;99.90
40732;DHT22;26420;52.256;9.096;2022-08-19T04:23:25;17.60;99.90
40732;DHT22;26420;52.256;9.096;2022-08-19T04:28:29;17.70;99.90
40732;DHT22;26420;52.256;9.096;2022-08-19T04:33:32;17.60;99.90
40732;DHT22;26420;52.256;9.096;2022-08-19T04:38:33;17.40;99.90
40732;DHT22;26420;52.256;9.096;2022-08-19T04:43:37;17.30;99.90
40732;DHT22;26420;52.256;9.096;2022-08-19T04:48:39;17.50;99.90
40732;DHT22;26420;52.256;9.096;2022-08-19T04:53:50;17.50;99.90
40732;DHT22;26420;52.256;9.096;2022-08-19T04:58:54;17.70;99.90
40732;DHT22;26420;52.256;9.096;2022-08-19T05:03:57;17.80;99.90
40732;DHT22;26420;52.256;9.096;2022-08-19T05:09:00;17.60;99.90
40732;DHT22;26420;52.256;9.096;2022-08-19T05:14:02;17.60;99.90
40732;DHT22;26420;52.256;9.096;2022-08-19T05:19:04;17.60;99.90
40732;DHT22;26420;52.256;9.096;2022-08-19T05:24:26;17.80;99.90
40732;DHT22;26420;52.256;9.096;2022-08-19T05:29:29;17.80;99.90
40732;DHT22;26420;52.256;9.096;2022-08-19T05:34:37;18.00;99.90
40732;DHT22;26420;52.256;9.096;2022-08-19T05:39:39;18.00;99.90
40732;DHT22;26420;52.256;9.096;2022-08-19T05:44:43;18.00;99.90
40732;DHT22;26420;52.256;9.096;2022-08-19T05:49:48;18.10;99.90
40732;DHT22;26420;52.256;9.096;2022-08-19T05:54:52;18.20;99.90
40732;DHT22;26420;52.256;9.096;2022-08-19T05:59:57;18.50;99.90
40732;DHT22;26420;52.256;9.096;2022-08-19T06:04:59;18.50;99.90
40732;DHT22;26420;52.256;9.096;2022-08-19T06:10:03;18.40;99.90
40732;DHT22;26420;52.256;9.096;2022-08-19T06:15:08;18.60;99.90
40732;DHT22;26420;52.256;9.096;2022-08-19T06:20:12;18.80;99.90
40732;DHT22;26420;52.256;9.096;2022-08-19T06:25:14;19.10;99.90
40732;DHT22;26420;52.256;9.096;2022-08-19T06:30:16;19.40;99.90
40732;DHT22;26420;52.256;9.096;2022-08-19T06:35:18;19.30;99.90
40732;DHT22;26420;52.256;9.096;2022-08-19T06:40:20;19.40;99.90
40732;DHT22;26420;52.256;9.096;2022-08-19T06:45:22;19.40;99.90
40732;DHT22;26420;52.256;9.096;2022-08-19T06:50:35;19.30;99.90
40732;DHT22;26420;52.256;9.096;2022-08-19T06:55:40;19.30;99.90
40732;DHT22;26420;52.256;9.096;2022-08-19T07:00:42;19.20;99.90
40732;DHT22;26420;52.256;9.096;2022-08-19T07:05:44;19.30;99.90
40732;DHT22;26420;52.256;9.096;2022-08-19T07:10:46;19.30;99.90
40732;DHT22;26420;52.256;9.096;2022-08-19T07:15:49;19.40;99.90
40732;DHT22;26420;52.256;9.096;2022-08-19T07:21:08;19.50;99.90
40732;DHT22;26420;52.256;9.096;2022-08-19T07:31:18;19.50;99.90
40732;DHT22;26420;52.256;9.096;2022-08-19T07:36:28;19.60;99.90
40732;DHT22;26420;52.256;9.096;2022-08-19T07:41:32;19.70;99.90
40732;DHT22;26420;52.256;9.096;2022-08-19T07:46:38;19.80;99.90
40732;DHT22;26420;52.256;9.096;2022-08-19T07:51:41;20.00;99.90
40732;DHT22;26420;52.256;9.096;2022-08-19T07:56:42;20.10;99.90
40732;DHT22;26420;52.256;9.096;2022-08-19T08:01:44;20.20;99.90
40732;DHT22;26420;52.256;9.096;2022-08-19T08:06:46;20.50;99.90
40732;DHT22;26420;52.256;9.096;2022-08-19T08:12:14;20.80;99.90
40732;DHT22;26420;52.256;9.096;2022-08-19T08:17:35;21.00;99.90
40732;DHT22;26420;52.256;9.096;2022-08-19T08:22:52;20.90;99.90
40732;DHT22;26420;52.256;9.096;2022-08-19T08:28:12;21.10;99.90
40732;DHT22;26420;52.256;9.096;2022-08-19T08:33:22;21.70;99.90
40732;DHT22;26420;52.256;9.096;2022-08-19T08:38:35;22.00;99.90
40732;DHT22;26420;52.256;9.096;2022-08-19T08:43:45;22.10;99.90
40732;DHT22;26420;52.256;9.096;2022-08-19T08:48:56;22.20;99.90
40732;DHT22;26420;52.256;9.096;2022-08-19T08:54:02;22.40;99.90
40732;DHT22;26420;52.256;9.096;2022-08-19T08:59:28;22.50;99.90
40732;DHT22;26420;52.256;9.096;2022-08-19T09:04:28;22.60;99.90
40732;DHT22;26420;52.256;9.096;2022-08-19T09:09:38;23.00;99.90
40732;DHT22;26420;52.256;9.096;2022-08-19T09:15:07;23.10;99.90
40732;DHT22;26420;52.256;9.096;2022-08-19T09:25:15;23.30;99.90
40732;DHT22;26420;52.256;9.096;2022-08-19T09:30:28;23.50;99.90
40732;DHT22;26420;52.256;9.096;2022-08-19T09:35:32;23.80;99.90
40732;DHT22;26420;52.256;9.096;2022-08-19T09:40:50;24.00;99.90
40732;DHT22;26420;52.256;9.096;2022-08-19T09:45:53;24.00;99.90
40732;DHT22;26420;52.256;9.096;2022-08-19T09:50:55;24.00;99.90
40732;DHT22;26420;52.256;9.096;2022-08-19T09:55:56;24.20;99.90
40732;DHT22;26420;52.256;9.096;2022-08-19T10:01:00;24.20;99.90
40732;DHT22;26420;52.256;9.096;2022-08-19T10:06:04;24.60;99.90
40732;DHT22;26420;52.256;9.096;2022-08-19T10:11:15;25.10;99.90
40732;DHT22;26420;52.256;9.096;2022-08-19T10:16:37;25.40;99.10
40732;DHT22;26420;52.256;9.096;2022-08-19T10:21:40;25.60;99.40
40732;DHT22;26420;52.256;9.096;2022-08-19T10:26:42;25.50;98.60
40732;DHT22;26420;52.256;9.096;2022-08-19T10:31:47;25.70;98.20
40732;DHT22;26420;52.256;9.096;2022-08-19T10:37:04;25.80;98.70
40732;DHT22;26420;52.256;9.096;2022-08-19T10:42:07;25.80;98.60
40732;DHT22;26420;52.256;9.096;2022-08-19T10:47:12;25.90;98.00
40732;DHT22;26420;52.256;9.096;2022-08-19T10:52:25;26.20;98.30
40732;DHT22;26420;52.256;9.096;2022-08-19T10:57:39;26.30;97.90
40732;DHT22;26420;52.256;9.096;2022-08-19T11:03:01;26.50;97.40
40732;DHT22;26420;52.256;9.096;2022-08-19T11:08:03;26.80;96.70
40732;DHT22;26420;52.256;9.096;2022-08-19T11:13:24;26.70;96.80
40732;DHT22;26420;52.256;9.096;2022-08-19T11:18:26;27.10;94.70
40732;DHT22;26420;52.256;9.096;2022-08-19T11:23:27;27.40;94.80
40732;DHT22;26420;52.256;9.096;2022-08-19T11:28:29;28.80;92.90
40732;DHT22;26420;52.256;9.096;2022-08-19T11:33:31;28.20;91.90
40732;DHT22;26420;52.256;9.096;2022-08-19T11:38:34;28.90;91.60
40732;DHT22;26420;52.256;9.096;2022-08-19T11:43:37;29.80;88.70
40732;DHT22;26420;52.256;9.096;2022-08-19T11:48:39;30.80;87.40
40732;DHT22;26420;52.256;9.096;2022-08-19T11:53:41;30.80;84.70
40732;DHT22;26420;52.256;9.096;2022-08-19T11:58:43;30.50;83.90
40732;DHT22;26420;52.256;9.096;2022-08-19T12:03:46;30.60;83.20
40732;DHT22;26420;52.256;9.096;2022-08-19T12:08:48;30.90;84.10
40732;DHT22;26420;52.256;9.096;2022-08-19T12:13:50;31.00;84.30
40732;DHT22;26420;52.256;9.096;2022-08-19T12:18:52;31.00;83.90
40732;DHT22;26420;52.256;9.096;2022-08-19T12:23:56;31.00;81.20
40732;DHT22;26420;52.256;9.096;2022-08-19T12:28:58;31.30;81.60
40732;DHT22;26420;52.256;9.096;2022-08-19T12:34:00;30.80;81.00
40732;DHT22;26420;52.256;9.096;2022-08-19T12:39:03;30.90;81.10
40732;DHT22;26420;52.256;9.096;2022-08-19T12:44:05;31.20;81.70
40732;DHT22;26420;52.256;9.096;2022-08-19T12:49:10;31.50;81.10
40732;DHT22;26420;52.256;9.096;2022-08-19T12:54:32;31.40;80.50
40732;DHT22;26420;52.256;9.096;2022-08-19T12:59:35;31.60;80.20
40732;DHT22;26420;52.256;9.096;2022-08-19T13:04:37;31.50;78.20
40732;DHT22;26420;52.256;9.096;2022-08-19T13:09:42;31.60;79.00
40732;DHT22;26420;52.256;9.096;2022-08-19T13:14:44;31.60;79.70
40732;DHT22;26420;52.256;9.096;2022-08-19T13:19:47;31.70;78.70
40732;DHT22;26420;52.256;9.096;2022-08-19T13:24:49;32.00;77.10
40732;DHT22;26420;52.256;9.096;2022-08-19T13:29:50;32.00;76.70
40732;DHT22;26420;52.256;9.096;2022-08-19T13:35:11;31.80;77.50
40732;DHT22;26420;52.256;9.096;2022-08-19T13:40:20;31.90;76.80
40732;DHT22;26420;52.256;9.096;2022-08-19T13:45:25;32.10;77.10
40732;DHT22;26420;52.256;9.096;2022-08-19T13:50:29;32.30;74.40
40732;DHT22;26420;52.256;9.096;2022-08-19T13:55:32;32.20;75.20
40732;DHT22;26420;52.256;9.096;2022-08-19T14:00:37;32.40;76.10
40732;DHT22;26420;52.256;9.096;2022-08-19T14:05:40;32.50;75.40
40732;DHT22;26420;52.256;9.096;2022-08-19T14:10:42;32.20;75.60
40732;DHT22;26420;52.256;9.096;2022-08-19T14:15:46;32.50;76.10
40732;DHT22;26420;52.256;9.096;2022-08-19T14:20:48;32.80;75.80
40732;DHT22;26420;52.256;9.096;2022-08-19T14:25:50;32.90;74.90
40732;DHT22;26420;52.256;9.096;2022-08-19T14:30:52;33.00;73.90
40732;DHT22;26420;52.256;9.096;2022-08-19T14:35:57;32.90;73.20
40732;DHT22;26420;52.256;9.096;2022-08-19T14:46:19;32.80;74.10
40732;DHT22;26420;52.256;9.096;2022-08-19T14:51:23;33.10;74.30
40732;DHT22;26420;52.256;9.096;2022-08-19T14:56:29;34.00;72.50
40732;DHT22;26420;52.256;9.096;2022-08-19T15:01:30;34.70;70.00
40732;DHT22;26420;52.256;9.096;2022-08-19T15:06:32;35.00;70.80
40732;DHT22;26420;52.256;9.096;2022-08-19T15:11:35;35.40;71.60
40732;DHT22;26420;52.256;9.096;2022-08-19T15:16:36;35.80;72.30
40732;DHT22;26420;52.256;9.096;2022-08-19T15:21:40;34.50;71.20
40732;DHT22;26420;52.256;9.096;2022-08-19T15:26:42;33.70;71.90
40732;DHT22;26420;52.256;9.096;2022-08-19T15:31:44;33.40;73.10
40732;DHT22;26420;52.256;9.096;2022-08-19T15:36:49;33.70;74.20
40732;DHT22;26420;52.256;9.096;2022-08-19T15:41:51;33.50;74.50
40732;DHT22;26420;52.256;9.096;2022-08-19T15:46:53;33.40;74.60
40732;DHT22;26420;52.256;9.096;2022-08-19T15:51:55;33.50;74.30
40732;DHT22;26420;52.256;9.096;2022-08-19T15:56:58;33.30;74.50
40732;DHT22;26420;52.256;9.096;2022-08-19T16:02:20;33.00;75.10
40732;DHT22;26420;52.256;9.096;2022-08-19T16:08:01;32.70;74.30
40732;DHT22;26420;52.256;9.096;2022-08-19T16:13:04;31.30;76.40
40732;DHT22;26420;52.256;9.096;2022-08-19T16:18:06;31.20;76.50
40732;DHT22;26420;52.256;9.096;2022-08-19T16:23:08;32.50;75.70
40732;DHT22;26420;52.256;9.096;2022-08-19T16:28:10;33.70;74.00
40732;DHT22;26420;52.256;9.096;2022-08-19T16:33:12;32.90;73.60
40732;DHT22;26420;52.256;9.096;2022-08-19T16:38:24;31.70;75.80
40732;DHT22;26420;52.256;9.096;2022-08-19T16:43:27;30.50;77.00
40732;DHT22;26420;52.256;9.096;2022-08-19T16:48:29;29.80;76.80
40732;DHT22;26420;52.256;9.096;2022-08-19T16:53:31;33.50;73.20
40732;DHT22;26420;52.256;9.096;2022-08-19T16:58:33;32.30;73.40
40732;DHT22;26420;52.256;9.096;2022-08-19T17:03:36;30.20;75.60
40732;DHT22;26420;52.256;9.096;2022-08-19T17:08:39;29.20;77.10
40732;DHT22;26420;52.256;9.096;2022-08-19T17:13:40;28.70;77.60
40732;DHT22;26420;52.256;9.096;2022-08-19T17:18:44;28.40;77.50
40732;DHT22;26420;52.256;9.096;2022-08-19T17:23:45;28.30;77.20
40732;DHT22;26420;52.256;9.096;2022-08-19T17:28:51;28.10;78.30
40732;DHT22;26420;52.256;9.096;2022-08-19T17:33:52;27.80;78.40
40732;DHT22;26420;52.256;9.096;2022-08-19T17:38:57;27.80;79.00
40732;DHT22;26420;52.256;9.096;2022-08-19T17:43:59;27.70;80.00
40732;DHT22;26420;52.256;9.096;2022-08-19T17:49:01;27.50;80.40
40732;DHT22;26420;52.256;9.096;2022-08-19T17:54:02;27.40;79.40
40732;DHT22;26420;52.256;9.096;2022-08-19T17:59:06;27.20;79.70
40732;DHT22;26420;52.256;9.096;2022-08-19T18:04:15;27.00;80.50
40732;DHT22;26420;52.256;9.096;2022-08-19T18:09:17;26.70;81.40
40732;DHT22;26420;52.256;9.096;2022-08-19T18:14:23;26.60;82.10
40732;DHT22;26420;52.256;9.096;2022-08-19T18:19:35;26.40;82.20
40732;DHT22;26420;52.256;9.096;2022-08-19T18:24:42;26.20;83.50
40732;DHT22;26420;52.256;9.096;2022-08-19T18:29:46;25.90;84.60
40732;DHT22;26420;52.256;9.096;2022-08-19T18:34:48;25.70;85.40
40732;DHT22;26420;52.256;9.096;2022-08-19T18:39:50;25.40;86.50
40732;DHT22;26420;52.256;9.096;2022-08-19T18:45:10;25.10;87.50
40732;DHT22;26420;52.256;9.096;2022-08-19T18:50:31;25.00;88.20
40732;DHT22;26420;52.256;9.096;2022-08-19T18:55:33;24.70;89.30
40732;DHT22;26420;52.256;9.096;2022-08-19T19:00:35;24.70;89.40
40732;DHT22;26420;52.256;9.096;2022-08-19T19:05:37;24.40;90.20
40732;DHT22;26420;52.256;9.096;2022-08-19T19:10:40;24.30;90.30
40732;DHT22;26420;52.256;9.096;2022-08-19T19:15:42;24.20;90.70
40732;DHT22;26420;52.256;9.096;2022-08-19T19:20:44;24.10;90.90
40732;DHT22;26420;52.256;9.096;2022-08-19T19:25:46;23.80;91.30
40732;DHT22;26420;52.256;9.096;2022-08-19T19:30:53;23.60;92.10
40732;DHT22;26420;52.256;9.096;2022-08-19T19:35:55;23.60;92.20
40732;DHT22;26420;52.256;9.096;2022-08-19T19:40:56;23.60;92.10
40732;DHT22;26420;52.256;9.096;2022-08-19T19:45:58;23.60;92.60
40732;DHT22;26420;52.256;9.096;2022-08-19T19:51:01;23.50;93.00
40732;DHT22;26420;52.256;9.096;2022-08-19T19:56:03;23.40;93.80
40732;DHT22;26420;52.256;9.096;2022-08-19T20:01:06;23.10;94.10
40732;DHT22;26420;52.256;9.096;2022-08-19T20:06:14;23.10;94.10
40732;DHT22;26420;52.256;9.096;2022-08-19T20:11:37;23.30;93.70
40732;DHT22;26420;52.256;9.096;2022-08-19T20:16:42;23.40;94.20
40732;DHT22;26420;52.256;9.096;2022-08-19T20:21:46;23.20;94.70
40732;DHT22;26420;52.256;9.096;2022-08-19T20:26:52;23.20;94.90
40732;DHT22;26420;52.256;9.096;2022-08-19T20:31:54;23.20;94.80
40732;DHT22;26420;52.256;9.096;2022-08-19T20:36:59;23.20;95.10
40732;DHT22;26420;52.256;9.096;2022-08-19T20:42:01;23.00;95.80
40732;DHT22;26420;52.256;9.096;2022-08-19T20:47:03;22.90;96.20
40732;DHT22;26420;52.256;9.096;2022-08-19T20:52:05;22.90;96.20
40732;DHT22;26420;52.256;9.096;2022-08-19T20:57:06;22.80;96.60
40732;DHT22;26420;52.256;9.096;2022-08-19T21:02:09;22.70;97.10
40732;DHT22;26420;52.256;9.096;2022-08-19T21:07:11;22.60;97.50
40732;DHT22;26420;52.256;9.096;2022-08-19T21:12:13;22.60;98.00
40732;DHT22;26420;52.256;9.096;2022-08-19T21:17:14;22.30;98.40
40732;DHT22;26420;52.256;9.096;2022-08-19T21:22:16;22.20;98.90
40732;DHT22;26420;52.256;9.096;2022-08-19T21:27:18;22.10;99.30
40732;DHT22;26420;52.256;9.096;2022-08-19T21:32:19;22.00;99.70
40732;DHT22;26420;52.256;9.096;2022-08-19T21:37:21;22.00;99.90
40732;DHT22;26420;52.256;9.096;2022-08-19T21:42:26;22.00;99.90
40732;DHT22;26420;52.256;9.096;2022-08-19T21:47:28;22.00;99.90
40732;DHT22;26420;52.256;9.096;2022-08-19T21:52:29;21.90;99.90
40732;DHT22;26420;52.256;9.096;2022-08-19T21:57:31;21.70;99.90
40732;DHT22;26420;52.256;9.096;2022-08-19T22:02:33;21.80;99.90
40732;DHT22;26420;52.256;9.096;2022-08-19T22:07:35;21.80;99.90
40732;DHT22;26420;52.256;9.096;2022-08-19T22:12:38;21.80;99.90
40732;DHT22;26420;52.256;9.096;2022-08-19T22:17:52;21.70;99.90
40732;DHT22;26420;52.256;9.096;2022-08-19T22:23:03;21.60;99.90
40732;DHT22;26420;52.256;9.096;2022-08-19T22:28:08;21.60;99.90
40732;DHT22;26420;52.256;9.096;2022-08-19T22:33:16;21.70;99.90
40732;DHT22;26420;52.256;9.096;2022-08-19T22:38:18;21.50;99.90
40732;DHT22;26420;52.256;9.096;2022-08-19T22:43:23;21.50;99.90
40732;DHT22;26420;52.256;9.096;2022-08-19T22:48:28;21.40;99.90
40732;DHT22;26420;52.256;9.096;2022-08-19T22:53:32;21.40;99.90
40732;DHT22;26420;52.256;9.096;2022-08-19T22:58:35;21.40;99.90
40732;DHT22;26420;52.256;9.096;2022-08-19T23:03:37;21.30;99.90
40732;DHT22;26420;52.256;9.096;2022-08-19T23:08:40;21.10;99.90
40732;DHT22;26420;52.256;9.096;2022-08-19T23:13:42;21.10;99.90
40732;DHT22;26420;52.256;9.096;2022-08-19T23:18:44;21.20;99.90
40732;DHT22;26420;52.256;9.096;2022-08-19T23:23:46;21.20;99.90
40732;DHT22;26420;52.256;9.096;2022-08-19T23:28:48;21.30;99.90
40732;DHT22;26420;52.256;9.096;2022-08-19T23:34:08;21.20;99.90
40732;DHT22;26420;52.256;9.096;2022-08-19T23:39:10;21.20;99.90
40732;DHT22;26420;52.256;9.096;2022-08-19T23:44:11;21.00;99.90
40732;DHT22;26420;52.256;9.096;2022-08-19T23:49:15;21.00;99.90
40732;DHT22;26420;52.256;9.096;2022-08-19T23:54:17;20.90;99.90
40732;DHT22;26420;52.256;9.096;2022-08-19T23:59:19;20.90;99.90
